createdAt,value
2017-10-21T00:00:45.264Z,100503.59
2017-10-21T00:03:12.737Z,100501.45
2017-10-21T00:05:40.165Z,100504.09
2017-10-21T00:08:07.628Z,100504.20
2017-10-21T00:10:35.108Z,100493.05
2017-10-21T00:13:02.563Z,100495.26
2017-10-21T00:15:30.036Z,100499.80
2017-10-21T00:17:57.566Z,100497.67
2017-10-21T00:20:25.012Z,100494.63
2017-10-21T00:22:52.465Z,100496.39
2017-10-21T00:25:19.950Z,100503.55
2017-10-21T00:27:47.386Z,100503.50
2017-10-21T00:30:14.855Z,100504.69
2017-10-21T00:32:42.421Z,100505.92
2017-10-21T00:35:09.985Z,100505.05
2017-10-21T00:37:37.432Z,100498.13
2017-10-21T00:40:04.896Z,100498.70
2017-10-21T00:42:32.351Z,100480.09
2017-10-21T00:44:59.842Z,100464.39
2017-10-21T00:47:27.378Z,100460.97
2017-10-21T00:49:54.860Z,100463.31
2017-10-21T00:52:22.313Z,100478.44
2017-10-21T00:54:49.797Z,100471.45
2017-10-21T00:57:17.257Z,100473.30
2017-10-21T00:59:44.732Z,100473.38
2017-10-21T01:02:12.218Z,100476.05
2017-10-21T01:04:39.716Z,100468.36
2017-10-21T01:07:07.223Z,100463.45
2017-10-21T01:09:34.702Z,100464.82
2017-10-21T01:12:02.144Z,100453.79
2017-10-21T01:14:29.631Z,100461.67
2017-10-21T01:16:57.086Z,100456.58
2017-10-21T01:19:24.608Z,100462.61
2017-10-21T01:21:52.078Z,100461.00
2017-10-21T01:24:19.553Z,100456.47
2017-10-21T01:26:47.008Z,100459.38
2017-10-21T01:29:14.542Z,100454.23
2017-10-21T01:31:42.050Z,100460.06
2017-10-21T01:34:09.528Z,100450.16
2017-10-21T01:36:36.980Z,100448.34
2017-10-21T01:39:04.465Z,100448.16
2017-10-21T01:41:31.920Z,100446.81
2017-10-21T01:43:59.488Z,100448.35
2017-10-21T01:46:27.041Z,100453.45
2017-10-21T01:48:54.512Z,100438.90
2017-10-21T01:51:22.036Z,100436.43
2017-10-21T01:53:49.483Z,100436.83
2017-10-21T01:56:16.966Z,100443.81
2017-10-21T01:58:44.425Z,100433.58
2017-10-21T02:01:11.996Z,100441.27
2017-10-21T02:03:39.450Z,100434.95
2017-10-21T02:06:06.929Z,100438.78
2017-10-21T02:08:34.384Z,100432.30
2017-10-21T02:11:01.866Z,100435.97
2017-10-21T02:13:29.369Z,100432.57
2017-10-21T02:15:56.926Z,100436.63
2017-10-21T02:18:24.374Z,100436.67
2017-10-21T02:20:51.873Z,100438.61
2017-10-21T02:23:19.315Z,100436.63
2017-10-21T02:25:46.861Z,100437.63
2017-10-21T02:28:14.437Z,100434.16
2017-10-21T02:30:41.921Z,100446.46
2017-10-21T02:33:09.428Z,100440.09
2017-10-21T02:35:36.900Z,100435.87
2017-10-21T02:38:04.352Z,100435.89
2017-10-21T02:40:31.842Z,100444.81
2017-10-21T02:42:59.350Z,100445.97
2017-10-21T02:45:26.917Z,100446.48
2017-10-21T02:47:54.489Z,100447.27
2017-10-21T02:50:21.973Z,100432.42
2017-10-21T02:52:49.493Z,100430.47
2017-10-21T02:55:16.968Z,100428.02
2017-10-21T02:57:44.440Z,100427.82
2017-10-21T03:00:11.918Z,100424.38
2017-10-21T03:02:39.376Z,100420.58
2017-10-21T03:05:06.852Z,100429.52
2017-10-21T03:07:34.307Z,100429.11
2017-10-21T03:10:01.779Z,100431.78
2017-10-21T03:12:29.248Z,100427.66
2017-10-21T03:14:56.725Z,100430.45
2017-10-21T03:17:24.181Z,100436.29
2017-10-21T03:19:51.672Z,100444.09
2017-10-21T03:22:19.127Z,100434.53
2017-10-21T03:24:46.637Z,100430.16
2017-10-21T03:27:14.188Z,100433.96
2017-10-21T03:29:41.644Z,100427.25
2017-10-21T03:32:09.215Z,100428.30
2017-10-21T03:34:36.673Z,100429.86
2017-10-21T03:37:04.153Z,100418.28
2017-10-21T03:39:31.601Z,100427.28
2017-10-21T03:41:59.072Z,100419.54
2017-10-21T03:44:26.583Z,100411.88
2017-10-21T03:46:54.078Z,100414.48
2017-10-21T03:49:21.528Z,100413.07
2017-10-21T03:51:49.013Z,100410.78
2017-10-21T03:54:16.492Z,100407.98
2017-10-21T03:56:44.080Z,100406.55
2017-10-21T03:59:11.536Z,100414.80
2017-10-21T04:01:39.041Z,100408.23
2017-10-21T04:04:06.554Z,100408.05
2017-10-21T04:06:34.108Z,100410.52
2017-10-21T04:09:01.598Z,100411.11
2017-10-21T04:11:29.123Z,100405.97
2017-10-21T04:13:56.685Z,100401.75
2017-10-21T04:16:24.155Z,100402.03
2017-10-21T04:18:51.750Z,100405.53
2017-10-21T04:21:19.269Z,100409.84
2017-10-21T04:23:46.796Z,100402.16
2017-10-21T04:26:14.255Z,100401.19
2017-10-21T04:28:41.703Z,100403.63
2017-10-21T04:31:09.171Z,100405.05
2017-10-21T04:33:36.620Z,100406.60
2017-10-21T04:36:04.097Z,100408.08
2017-10-21T04:38:31.548Z,100409.42
2017-10-21T04:40:59.041Z,100402.95
2017-10-21T04:43:26.501Z,100400.85
2017-10-21T04:45:53.981Z,100403.68
2017-10-21T04:48:21.482Z,100401.56
2017-10-21T04:50:48.957Z,100398.63
2017-10-21T04:53:16.406Z,100385.14
2017-10-21T04:55:43.949Z,100372.34
2017-10-21T04:58:11.432Z,100362.89
2017-10-21T05:00:38.914Z,100363.92
2017-10-21T05:03:06.384Z,100359.46
2017-10-21T05:05:33.865Z,100374.75
2017-10-21T05:08:01.353Z,100379.80
2017-10-21T05:10:28.807Z,100371.42
2017-10-21T05:12:56.366Z,100392.08
2017-10-21T05:15:23.821Z,100392.06
2017-10-21T05:17:51.680Z,100385.99
2017-10-21T05:20:19.146Z,100392.05
2017-10-21T05:22:46.616Z,100391.80
2017-10-21T05:25:14.074Z,100389.66
2017-10-21T05:27:42.526Z,100389.70
2017-10-21T05:30:09.994Z,100399.08
2017-10-21T05:32:37.467Z,100398.72
2017-10-21T05:35:04.916Z,100395.72
2017-10-21T05:37:32.461Z,100385.00
2017-10-21T05:39:59.911Z,100380.50
2017-10-21T05:42:27.471Z,100382.05
2017-10-21T05:44:54.937Z,100382.13
2017-10-21T05:47:22.423Z,100376.97
2017-10-21T05:49:49.882Z,100379.18
2017-10-21T05:52:17.410Z,100375.00
2017-10-21T05:54:44.853Z,100385.67
2017-10-21T05:57:12.338Z,100388.66
2017-10-21T05:59:39.872Z,100384.12
2017-10-21T06:02:07.353Z,100396.53
2017-10-21T06:04:34.806Z,100401.50
2017-10-21T06:07:02.280Z,100400.87
2017-10-21T06:09:29.833Z,100393.22
2017-10-21T06:11:57.305Z,100396.06
2017-10-21T06:14:24.828Z,100386.35
2017-10-21T06:16:52.296Z,100384.33
2017-10-21T06:19:19.768Z,100379.85
2017-10-21T06:21:47.245Z,100373.89
2017-10-21T06:24:14.690Z,100368.47
2017-10-21T06:26:42.151Z,100364.42
2017-10-21T06:29:09.621Z,100366.35
2017-10-21T06:31:37.100Z,100373.98
2017-10-21T06:34:04.553Z,100380.83
2017-10-21T06:36:32.032Z,100377.94
2017-10-21T06:38:59.538Z,100370.03
2017-10-21T06:41:27.001Z,100371.95
2017-10-21T06:43:54.476Z,100378.42
2017-10-21T06:46:21.933Z,100370.59
2017-10-21T06:48:49.510Z,100368.20
2017-10-21T06:51:16.948Z,100361.48
2017-10-21T06:53:44.436Z,100356.92
2017-10-21T06:56:11.984Z,100365.05
2017-10-21T06:58:39.460Z,100365.53
2017-10-21T07:01:06.911Z,100376.39
2017-10-21T07:03:34.389Z,100380.01
2017-10-21T07:06:01.926Z,100374.30
2017-10-21T07:08:29.423Z,100375.63
2017-10-21T07:10:56.889Z,100372.56
2017-10-21T07:13:24.370Z,100371.54
2017-10-21T07:15:51.846Z,100374.44
2017-10-21T07:18:19.422Z,100372.06
2017-10-21T07:20:46.893Z,100372.05
2017-10-21T07:23:14.427Z,100367.06
2017-10-21T07:25:41.948Z,100361.32
2017-10-21T07:28:09.561Z,100361.86
2017-10-21T07:30:37.020Z,100365.85
2017-10-21T07:33:04.507Z,100361.98
2017-10-21T07:35:31.961Z,100357.95
2017-10-21T07:37:59.512Z,100353.02
2017-10-21T07:40:26.977Z,100353.77
2017-10-21T07:42:54.464Z,100362.06
2017-10-21T07:45:21.919Z,100369.24
2017-10-21T07:47:49.388Z,100361.53
2017-10-21T07:50:16.849Z,100362.51
2017-10-21T07:52:44.329Z,100357.42
2017-10-21T07:55:11.867Z,100360.20
2017-10-21T07:57:39.368Z,100359.13
2017-10-21T08:00:06.852Z,100355.25
2017-10-21T08:02:34.353Z,100362.30
2017-10-21T08:05:01.901Z,100355.34
2017-10-21T08:07:29.368Z,100356.10
2017-10-21T08:09:56.921Z,100356.02
2017-10-21T08:12:24.469Z,100358.05
2017-10-21T08:14:51.936Z,100357.95
2017-10-21T08:17:19.411Z,100342.94
2017-10-21T08:19:46.896Z,100339.50
2017-10-21T08:22:14.344Z,100346.39
2017-10-21T08:24:41.819Z,100346.63
2017-10-21T08:27:09.349Z,100354.75
2017-10-21T08:29:36.877Z,100348.71
2017-10-21T08:32:04.340Z,100348.45
2017-10-21T08:34:31.829Z,100337.66
2017-10-21T08:36:59.357Z,100346.45
2017-10-21T08:39:26.828Z,100342.59
2017-10-21T08:41:54.369Z,100340.13
2017-10-21T08:44:21.851Z,100341.45
2017-10-21T08:46:49.316Z,100340.86
2017-10-21T08:49:16.833Z,100341.55
2017-10-21T08:51:44.310Z,100338.97
2017-10-21T08:54:11.802Z,100339.70
2017-10-21T08:56:39.262Z,100336.97
2017-10-21T08:59:06.761Z,100324.06
2017-10-21T09:01:34.226Z,100319.75
2017-10-21T09:04:01.783Z,100324.64
2017-10-21T09:06:29.234Z,100326.78
2017-10-21T09:08:56.803Z,100320.23
2017-10-21T09:11:24.252Z,100314.15
2017-10-21T09:13:51.723Z,100320.03
2017-10-21T09:16:19.165Z,100335.28
2017-10-21T09:18:46.660Z,100329.55
2017-10-21T09:21:14.125Z,100329.48
2017-10-21T09:23:41.625Z,100324.08
2017-10-21T09:26:09.129Z,100326.22
2017-10-21T09:28:36.648Z,100326.78
2017-10-21T09:31:04.114Z,100307.00
2017-10-21T09:33:31.581Z,100311.81
2017-10-21T09:35:59.111Z,100297.06
2017-10-21T09:38:26.706Z,100298.88
2017-10-21T09:40:54.239Z,100312.08
2017-10-21T09:43:21.708Z,100318.97
2017-10-21T09:45:49.193Z,100321.75
2017-10-21T09:48:16.709Z,100337.40
2017-10-21T09:50:44.192Z,100336.72
2017-10-21T09:53:11.647Z,100336.24
2017-10-21T09:55:39.153Z,100325.44
2017-10-21T09:58:06.611Z,100328.05
2017-10-21T10:00:34.096Z,100323.34
2017-10-21T10:03:01.556Z,100318.53
2017-10-21T10:05:29.050Z,100318.17
2017-10-21T10:07:56.510Z,100326.60
2017-10-21T10:10:23.995Z,100319.49
2017-10-21T10:12:51.457Z,100316.66
2017-10-21T10:15:18.941Z,100314.52
2017-10-21T10:17:46.405Z,100319.67
2017-10-21T10:20:13.905Z,100322.65
2017-10-21T10:22:41.394Z,100317.49
2017-10-21T10:25:08.867Z,100308.31
2017-10-21T10:27:36.432Z,100306.42
2017-10-21T10:30:03.974Z,100309.50
2017-10-21T10:32:31.457Z,100301.00
2017-10-21T10:34:58.928Z,100299.22
2017-10-21T10:37:26.375Z,100298.97
2017-10-21T10:39:53.853Z,100298.64
2017-10-21T10:42:21.307Z,100297.58
2017-10-21T10:44:48.787Z,100299.11
2017-10-21T10:47:16.240Z,100288.39
2017-10-21T10:49:43.720Z,100284.03
2017-10-21T10:52:11.206Z,100280.13
2017-10-21T10:54:38.749Z,100275.02
2017-10-21T10:57:06.215Z,100270.28
2017-10-21T10:59:33.664Z,100268.66
2017-10-21T11:02:01.149Z,100259.02
2017-10-21T11:04:28.680Z,100259.17
2017-10-21T11:06:56.174Z,100259.59
2017-10-21T11:09:23.644Z,100253.14
2017-10-21T11:11:51.119Z,100253.82
2017-10-21T11:14:18.597Z,100255.41
2017-10-21T11:16:46.078Z,100261.88
2017-10-21T11:19:13.652Z,100257.83
2017-10-21T11:21:41.185Z,100261.13
2017-10-21T11:24:08.732Z,100258.61
2017-10-21T11:26:36.344Z,100255.32
2017-10-21T11:29:03.811Z,100257.09
2017-10-21T11:31:31.313Z,100259.30
2017-10-21T11:33:58.823Z,100255.70
2017-10-21T11:36:26.333Z,100260.79
2017-10-21T11:38:53.817Z,100267.02
2017-10-21T11:41:21.346Z,100263.80
2017-10-21T11:43:48.820Z,100258.72
2017-10-21T11:46:16.352Z,100252.76
2017-10-21T11:48:43.808Z,100253.84
2017-10-21T11:51:11.274Z,100251.92
2017-10-21T11:53:38.783Z,100246.02
2017-10-21T11:56:06.276Z,100253.24
2017-10-21T11:58:33.723Z,100256.39
2017-10-21T12:01:01.204Z,100253.77
2017-10-21T12:03:28.654Z,100253.40
2017-10-21T12:05:56.142Z,100251.92
2017-10-21T12:08:23.603Z,100246.05
2017-10-21T12:10:51.133Z,100254.02
2017-10-21T12:13:18.675Z,100262.36
2017-10-21T12:15:46.268Z,100251.41
2017-10-21T12:18:13.814Z,100251.49
2017-10-21T12:20:41.303Z,100257.48
2017-10-21T12:23:08.764Z,100258.16
2017-10-21T12:25:36.221Z,100257.69
2017-10-21T12:28:03.741Z,100255.89
2017-10-21T12:30:31.212Z,100249.64
2017-10-21T12:32:58.708Z,100248.72
2017-10-21T12:35:26.211Z,100250.98
2017-10-21T12:37:53.756Z,100255.89
2017-10-21T12:40:21.215Z,100247.36
2017-10-21T12:42:48.694Z,100242.41
2017-10-21T12:45:16.237Z,100244.87
2017-10-21T12:47:43.720Z,100249.38
2017-10-21T12:50:11.258Z,100247.53
2017-10-21T12:52:38.814Z,100251.28
2017-10-21T12:55:06.750Z,100248.48
2017-10-21T12:57:34.228Z,100247.39
2017-10-21T13:00:01.695Z,100244.77
2017-10-21T13:02:29.206Z,100244.52
2017-10-21T13:04:56.665Z,100236.91
2017-10-21T13:07:24.181Z,100236.22
2017-10-21T13:09:51.671Z,100235.49
2017-10-21T13:12:19.168Z,100235.92
2017-10-21T13:14:46.629Z,100232.00
2017-10-21T13:17:14.123Z,100227.20
2017-10-21T13:19:41.575Z,100222.05
2017-10-21T13:22:09.052Z,100221.51
2017-10-21T13:24:36.572Z,100231.42
2017-10-21T13:27:04.114Z,100235.24
2017-10-21T13:29:31.566Z,100228.43
2017-10-21T13:31:59.080Z,100234.45
2017-10-21T13:34:26.541Z,100226.42
2017-10-21T13:36:54.050Z,100227.72
2017-10-21T13:39:21.551Z,100231.03
2017-10-21T13:41:49.046Z,100229.98
2017-10-21T13:44:16.510Z,100231.66
2017-10-21T13:46:44.023Z,100238.33
2017-10-21T13:49:11.468Z,100233.78
2017-10-21T13:51:38.987Z,100232.44
2017-10-21T13:54:06.470Z,100231.96
2017-10-21T13:56:34.022Z,100236.52
2017-10-21T13:59:01.560Z,100237.24
2017-10-21T14:01:29.021Z,100227.34
2017-10-21T14:03:56.500Z,100227.16
2017-10-21T14:06:24.041Z,100232.91
2017-10-21T14:08:51.539Z,100235.77
2017-10-21T14:11:19.006Z,100235.40
2017-10-21T14:13:46.491Z,100232.62
2017-10-21T14:16:13.962Z,100240.08
2017-10-21T14:18:41.545Z,100236.08
2017-10-21T14:21:08.998Z,100228.42
2017-10-21T14:23:36.541Z,100229.98
2017-10-21T14:26:04.021Z,100228.86
2017-10-21T14:28:31.517Z,100234.02
2017-10-21T14:30:58.981Z,100230.34
2017-10-21T14:33:26.458Z,100240.44
2017-10-21T14:35:53.937Z,100242.41
2017-10-21T14:38:21.403Z,100245.37
2017-10-21T14:40:48.880Z,100242.38
2017-10-21T14:43:16.382Z,100242.81
2017-10-21T14:45:43.843Z,100242.69
2017-10-21T14:48:11.322Z,100242.42
2017-10-21T14:50:38.867Z,100247.87
2017-10-21T14:53:06.357Z,100250.24
2017-10-21T14:55:33.818Z,100220.48
2017-10-21T14:58:01.358Z,100222.30
2017-10-21T15:00:28.807Z,100210.50
2017-10-21T15:02:56.280Z,100224.73
2017-10-21T15:05:23.737Z,100216.08
2017-10-21T15:07:51.249Z,100214.82
2017-10-21T15:10:18.726Z,100218.62
2017-10-21T15:12:46.246Z,100215.64
2017-10-21T15:15:13.735Z,100213.65
2017-10-21T15:17:41.224Z,100219.14
2017-10-21T15:20:08.771Z,100228.97
2017-10-21T15:22:36.242Z,100226.20
2017-10-21T15:25:03.766Z,100233.86
2017-10-21T15:27:31.229Z,100221.44
2017-10-21T15:29:58.780Z,100209.58
2017-10-21T15:32:26.251Z,100211.70
2017-10-21T15:34:53.723Z,100211.05
2017-10-21T15:37:21.196Z,100209.22
2017-10-21T15:39:48.742Z,100215.78
2017-10-21T15:42:16.219Z,100224.98
2017-10-21T15:44:43.731Z,100214.73
2017-10-21T15:47:11.208Z,100202.23
2017-10-21T15:49:38.737Z,100214.04
2017-10-21T15:52:06.197Z,100220.45
2017-10-21T15:54:33.721Z,100220.48
2017-10-21T15:57:01.190Z,100210.80
2017-10-21T15:59:28.785Z,100193.23
2017-10-21T16:01:56.257Z,100192.88
2017-10-21T16:04:23.793Z,100208.55
2017-10-21T16:06:51.264Z,100201.27
2017-10-21T16:09:18.790Z,100203.22
2017-10-21T16:11:46.258Z,100204.39
2017-10-21T16:14:13.736Z,100221.61
2017-10-21T16:16:41.225Z,100220.35
2017-10-21T16:19:08.711Z,100225.85
2017-10-21T16:21:36.240Z,100222.47
2017-10-21T16:24:03.755Z,100231.22
2017-10-21T16:26:31.304Z,100245.10
2017-10-21T16:28:58.877Z,100244.27
2017-10-21T16:31:26.328Z,100239.77
2017-10-21T16:33:53.890Z,100228.73
2017-10-21T16:36:21.352Z,100224.45
2017-10-21T16:38:48.844Z,100218.02
2017-10-21T16:41:16.301Z,100230.17
2017-10-21T16:43:43.787Z,100239.28
2017-10-21T16:46:11.250Z,100250.34
2017-10-21T16:48:38.823Z,100254.92
2017-10-21T16:51:06.284Z,100253.02
2017-10-21T16:53:33.797Z,100253.88
2017-10-21T16:56:01.278Z,100255.43
2017-10-21T16:58:28.811Z,100255.14
2017-10-21T17:00:56.361Z,100263.47
2017-10-21T17:03:23.872Z,100260.36
2017-10-21T17:05:51.353Z,100255.36
2017-10-21T17:08:18.875Z,100254.70
2017-10-21T17:10:46.470Z,100248.56
2017-10-21T17:13:14.001Z,100240.80
2017-10-21T17:15:41.566Z,100236.95
2017-10-21T17:18:09.065Z,100231.76
2017-10-21T17:20:36.551Z,100234.97
2017-10-21T17:23:04.075Z,100249.20
2017-10-21T17:25:31.554Z,100261.03
2017-10-21T17:27:59.020Z,100262.17
2017-10-21T17:30:26.504Z,100259.80
2017-10-21T17:32:53.964Z,100266.97
2017-10-21T17:35:21.471Z,100289.72
2017-10-21T17:37:48.965Z,100295.21
2017-10-21T17:40:16.443Z,100314.30
2017-10-21T17:42:44.002Z,100277.97
2017-10-21T17:45:11.509Z,100260.63
2017-10-21T17:47:38.960Z,100244.05
2017-10-21T17:50:06.477Z,100258.33
2017-10-21T17:52:33.984Z,100290.16
2017-10-21T17:55:01.494Z,100292.25
2017-10-21T17:57:28.943Z,100289.55
2017-10-21T17:59:56.429Z,100297.60
2017-10-21T18:02:23.889Z,100293.32
2017-10-21T18:04:51.396Z,100296.56
2017-10-21T18:07:18.870Z,100297.97
2017-10-21T18:09:46.372Z,100305.34
2017-10-21T18:12:13.854Z,100309.77
2017-10-21T18:14:41.352Z,100305.20
2017-10-21T18:17:08.892Z,100313.98
2017-10-21T18:19:36.460Z,100328.02
2017-10-21T18:22:03.949Z,100323.88
2017-10-21T18:24:31.411Z,100334.50
2017-10-21T18:26:58.902Z,100328.42
2017-10-21T18:29:26.363Z,100305.31
2017-10-21T18:31:53.841Z,100290.42
2017-10-21T18:34:21.418Z,100303.41
2017-10-21T18:36:48.911Z,100293.72
2017-10-21T18:39:16.417Z,100323.14
2017-10-21T18:41:43.900Z,100296.02
2017-10-21T18:44:11.377Z,100311.22
2017-10-21T18:46:38.866Z,100316.92
2017-10-21T18:49:06.327Z,100332.33
2017-10-21T18:51:33.902Z,100353.63
2017-10-21T18:54:01.365Z,100367.53
2017-10-21T18:56:28.968Z,100379.62
2017-10-21T18:58:56.437Z,100386.61
2017-10-21T19:01:23.946Z,100373.45
2017-10-21T19:03:51.412Z,100367.73
2017-10-21T19:06:18.904Z,100348.26
2017-10-21T19:08:46.412Z,100350.97
2017-10-21T19:11:13.903Z,100349.33
2017-10-21T19:13:41.351Z,100343.28
2017-10-21T19:16:08.919Z,100351.30
2017-10-21T19:18:36.382Z,100358.51
2017-10-21T19:21:03.871Z,100366.53
2017-10-21T19:23:31.328Z,100373.86
2017-10-21T19:25:58.805Z,100375.20
2017-10-21T19:28:26.265Z,100374.06
2017-10-21T19:30:53.770Z,100372.20
2017-10-21T19:33:21.251Z,100364.14
2017-10-21T19:35:48.733Z,100362.91
2017-10-21T19:38:16.301Z,100366.34
2017-10-21T19:40:43.858Z,100360.04
2017-10-21T19:43:11.333Z,100369.66
2017-10-21T19:45:38.821Z,100358.99
2017-10-21T19:48:06.319Z,100359.20
2017-10-21T19:50:33.778Z,100372.13
2017-10-21T19:53:01.283Z,100377.70
2017-10-21T19:55:28.748Z,100376.28
2017-10-21T19:57:56.257Z,100377.12
2017-10-21T20:00:23.704Z,100369.87
2017-10-21T20:02:51.189Z,100366.73
2017-10-21T20:05:18.639Z,100367.54
2017-10-21T20:07:46.129Z,100367.59
2017-10-21T20:10:13.700Z,100373.95
2017-10-21T20:12:41.189Z,100370.09
2017-10-21T20:15:08.766Z,100367.41
2017-10-21T20:17:36.243Z,100370.31
2017-10-21T20:20:03.744Z,100376.81
2017-10-21T20:22:31.336Z,100390.66
2017-10-21T20:24:58.800Z,100386.56
2017-10-21T20:27:26.287Z,100389.14
2017-10-21T20:29:53.742Z,100386.63
2017-10-21T20:32:21.246Z,100372.94
2017-10-21T20:34:48.722Z,100377.56
2017-10-21T20:37:16.221Z,100378.89
2017-10-21T20:39:43.689Z,100388.02
2017-10-21T20:42:11.153Z,100390.22
2017-10-21T20:44:38.637Z,100387.92
2017-10-21T20:47:06.096Z,100390.49
2017-10-21T20:49:33.572Z,100396.40
2017-10-21T20:52:01.021Z,100405.39
2017-10-21T20:54:28.574Z,100400.66
2017-10-21T20:56:56.038Z,100405.09
2017-10-21T20:59:23.519Z,100408.91
2017-10-21T21:01:51.006Z,100405.00
2017-10-21T21:04:18.491Z,100413.04
2017-10-21T21:06:45.983Z,100408.63
2017-10-21T21:09:13.517Z,100412.66
2017-10-21T21:11:40.966Z,100409.41
2017-10-21T21:14:08.466Z,100396.41
2017-10-21T21:16:35.916Z,100403.35
2017-10-21T21:19:03.387Z,100401.44
2017-10-21T21:21:30.878Z,100397.77
2017-10-21T21:23:58.372Z,100395.14
2017-10-21T21:26:25.919Z,100389.78
2017-10-21T21:28:53.496Z,100387.94
2017-10-21T21:31:20.956Z,100389.09
2017-10-21T21:33:48.441Z,100384.92
2017-10-21T21:36:15.898Z,100387.76
2017-10-21T21:38:43.420Z,100391.58
2017-10-21T21:41:10.888Z,100393.17
2017-10-21T21:43:38.425Z,100399.69
2017-10-21T21:46:05.968Z,100402.13
2017-10-21T21:48:33.445Z,100393.20
2017-10-21T21:51:00.937Z,100395.47
2017-10-21T21:53:28.444Z,100397.41
2017-10-21T21:55:56.026Z,100406.16
2017-10-21T21:58:23.497Z,100401.91
2017-10-21T22:00:50.972Z,100401.97
2017-10-21T22:03:18.476Z,100403.17
2017-10-21T22:05:45.950Z,100410.98
2017-10-21T22:08:13.488Z,100406.05
2017-10-21T22:10:40.982Z,100402.37
2017-10-21T22:13:08.455Z,100399.23
2017-10-21T22:15:35.961Z,100403.23
2017-10-21T22:18:03.415Z,100399.03
2017-10-21T22:20:30.894Z,100395.78
2017-10-21T22:22:58.437Z,100392.57
2017-10-21T22:25:25.992Z,100392.36
2017-10-21T22:27:53.449Z,100399.56
2017-10-21T22:30:21.004Z,100397.41
2017-10-21T22:32:48.513Z,100399.13
2017-10-21T22:35:16.012Z,100398.72
2017-10-21T22:37:43.599Z,100401.53
2017-10-21T22:40:11.106Z,100390.70
2017-10-21T22:42:38.596Z,100389.28
2017-10-21T22:45:06.082Z,100390.00
2017-10-21T22:47:33.634Z,100390.78
2017-10-21T22:50:01.169Z,100386.98
2017-10-21T22:52:28.630Z,100390.91
2017-10-21T22:54:56.198Z,100388.17
2017-10-21T22:57:23.743Z,100392.12
2017-10-21T22:59:51.221Z,100393.34
2017-10-21T23:02:18.706Z,100385.08
2017-10-21T23:04:46.179Z,100382.17
2017-10-21T23:07:13.671Z,100379.75
2017-10-21T23:09:41.138Z,100380.21
2017-10-21T23:12:08.687Z,100373.46
2017-10-21T23:14:36.181Z,100381.52
2017-10-21T23:17:03.645Z,100381.09
2017-10-21T23:19:31.102Z,100383.70
2017-10-21T23:21:58.592Z,100383.23
2017-10-21T23:24:26.058Z,100382.25
2017-10-21T23:26:53.588Z,100379.58
2017-10-21T23:29:21.085Z,100373.06
2017-10-21T23:31:48.555Z,100371.78
2017-10-21T23:34:16.014Z,100366.44
2017-10-21T23:36:43.515Z,100363.80
2017-10-21T23:39:10.977Z,100363.00
2017-10-21T23:41:38.456Z,100361.48
2017-10-21T23:44:05.935Z,100365.31
2017-10-21T23:46:33.421Z,100375.64
2017-10-21T23:49:00.959Z,100370.08
2017-10-21T23:51:28.476Z,100371.31
2017-10-21T23:53:55.961Z,100375.59
2017-10-21T23:56:23.529Z,100371.63
2017-10-21T23:58:50.992Z,100376.00
